Lake Edgewood, Indiana
Current Conditions -  °F | °C
As of 7:15 PM on Friday 28 Nov 2014 (Local Time) from K1II Reporting Station
Clear Clear  
Wind Chill: 27°   Ceiling: Unl
Heat Index: 34°   Visibility: 10mi
Dew Point: 23°   Wind: 8mph
Humidity: 65%   Direction: 170°S
Pressure: 30.1"   Gusts: NA
Location:  39.4615°N, 86.4578°W
Report Text: K1II 290015Z AUTO 17007KT 10SM CLR 01/M05 A3010 RMK AO2
Loading
Personal Weather Stations






























Interactive Weather Map New forecast layout! Learn more

10-Day Weather Forecast

Advertisements
Track Severe Weather on mobile